Terminal Aerodrome Forecast
Issued by NWS

Home | Current Version | Previous Version | Text Only | Print | Product List | Glossary On
Versions: 1 2 3 4 5 6 7 8 9 10 11 12 13 14 15 16 17
316
FTUS46 KSGX 220536
TAFONT
TAF
KONT 220536Z 2206/2312 VRB06KT P6SM SCT035 BKN050 BKN180
     FM221200 VRB06KT P6SM VCSH SCT015 BKN035 OVC050
     FM221500 05012KT 4SM -RA BR SCT010 BKN020 OVC040
     FM221800 05014G24KT 2SM SHRA BR SCT005 BKN015 OVC035
      TEMPO 2220/2224 1SM +SHRA BR BKN005
     FM230000 24011KT 2SM SHRA BR SCT005 BKN015 OVC035=

USA.gov is the U.S. government's official web portal to all federal, state and local government web resources and services.